Time;durP1;ratioP1;P1;durP2;ratioP2;P2;SDS_P1;SDS_P2;PMS_P1;PMS_P2;Temp;Humidity;BMP_temperature;BMP_pressure;BME280_temperature;BME280_humidity;BME280_pressure;Samples;Min_cycle;Max_cycle;Signal;HPM_P1;HPM_P2
2022/06/08 00:02:38;;;;;;;7.63;6.45;;;;;;;;;;9489256;30;20675;-73
2022/06/08 00:07:33;;;;;;;8.18;7.07;;;;;;;;;;9504064;30;20060;-72
2022/06/08 00:12:29;;;;;;;8.63;7.78;;;;;;;;;;9504678;30;20509;-73
2022/06/08 00:17:23;;;;;;;6.95;6.25;;;;;;;;;;9513420;30;20420;-73
2022/06/08 00:22:17;;;;;;;7.50;5.85;;;;;;;;;;9524466;30;20581;-73
2022/06/08 00:27:12;;;;;;;10.00;5.60;;;;;;;;;;9523708;30;20064;-73
2022/06/08 00:32:07;;;;;;;6.00;5.20;;;;;;;;;;9516125;30;20048;-72
2022/06/08 00:37:03;;;;;;;7.25;5.45;;;;;;;;;;9519094;30;20056;-73
2022/06/08 00:42:00;;;;;;;7.40;4.65;;;;;;;;;;9524423;30;20056;-73
2022/06/08 00:46:54;;;;;;;6.07;4.60;;;;;;;;;;9513399;30;20056;-72
2022/06/08 00:51:51;;;;;;;14.57;6.07;;;;;;;;;;9509736;30;20072;-72
2022/06/08 00:56:51;;;;;;;15.07;5.80;;;;;;;;;;9530933;30;20415;-73
2022/06/08 01:01:46;;;;;;;11.63;8.60;;;;;;;;;;9507877;30;20052;-73
2022/06/08 01:06:43;;;;;;;15.75;9.73;;;;;;;;;;9506426;30;20056;-73
2022/06/08 01:11:45;;;;;;;12.32;8.85;;;;;;;;;;9508249;30;20067;-73
2022/06/08 01:16:48;;;;;;;9.98;8.88;;;;;;;;;;9493658;30;20063;-73
2022/06/08 01:22:06;;;;;;;10.90;9.52;;;;;;;;;;9507540;30;20060;-73
2022/06/08 01:27:42;;;;;;;11.60;9.18;;;;;;;;;;9492827;30;20091;-73
2022/06/08 01:32:57;;;;;;;11.02;10.02;;;;;;;;;;9513972;30;20485;-73
2022/06/08 01:38:19;;;;;;;15.05;9.60;;;;;;;;;;9515936;30;20751;-73
2022/06/08 01:43:26;;;;;;;12.60;9.57;;;;;;;;;;9514978;30;20052;-73
2022/06/08 01:48:38;;;;;;;16.27;11.00;;;;;;;;;;9510432;30;20442;-73
2022/06/08 01:53:51;;;;;;;15.23;9.30;;;;;;;;;;9507119;30;20489;-73
2022/06/08 01:58:52;;;;;;;9.98;8.60;;;;;;;;;;9494807;30;20063;-73
2022/06/08 02:03:53;;;;;;;9.32;8.52;;;;;;;;;;9497258;30;20072;-73
2022/06/08 02:08:51;;;;;;;10.88;9.77;;;;;;;;;;9483856;30;20068;-73
2022/06/08 02:14:06;;;;;;;12.88;9.73;;;;;;;;;;9503411;30;20052;-73
2022/06/08 02:19:06;;;;;;;10.80;9.73;;;;;;;;;;9490932;30;20072;-73
2022/06/08 02:24:06;;;;;;;16.70;10.52;;;;;;;;;;9491304;30;20481;-73
2022/06/08 02:29:10;;;;;;;10.30;9.30;;;;;;;;;;9497288;30;20135;-73
2022/06/08 02:34:29;;;;;;;9.00;8.20;;;;;;;;;;9490149;30;20096;-73
2022/06/08 02:39:34;;;;;;;15.38;9.07;;;;;;;;;;9479792;30;20079;-73
2022/06/08 02:44:30;;;;;;;12.40;8.45;;;;;;;;;;9503752;30;20056;-73
2022/06/08 02:49:25;;;;;;;9.18;8.13;;;;;;;;;;9505008;30;20455;-73
2022/06/08 02:54:24;;;;;;;8.38;7.53;;;;;;;;;;9489493;30;20109;-73
2022/06/08 02:59:31;;;;;;;9.05;6.68;;;;;;;;;;9476219;30;20101;-72
2022/06/08 03:04:39;;;;;;;6.97;5.70;;;;;;;;;;9504048;30;20056;-73
2022/06/08 03:09:37;;;;;;;25.58;8.45;;;;;;;;;;9499027;30;20109;-73
2022/06/08 03:14:32;;;;;;;8.38;6.22;;;;;;;;;;9504350;30;20154;-73
2022/06/08 03:19:29;;;;;;;17.10;6.15;;;;;;;;;;9504520;30;20487;-73
2022/06/08 03:24:26;;;;;;;8.50;6.03;;;;;;;;;;9483803;30;20063;-73
2022/06/08 03:29:20;;;;;;;8.10;5.60;;;;;;;;;;9501506;30;20066;-73
2022/06/08 03:34:16;;;;;;;9.75;6.00;;;;;;;;;;9500402;30;20112;-72
2022/06/08 03:39:14;;;;;;;9.13;5.88;;;;;;;;;;9503290;30;20060;-73
2022/06/08 03:44:12;;;;;;;13.67;6.53;;;;;;;;;;9514320;30;20445;-73
2022/06/08 03:49:07;;;;;;;10.00;6.75;;;;;;;;;;9511090;30;20135;-73
2022/06/08 03:54:24;;;;;;;13.07;7.60;;;;;;;;;;9524904;30;20048;-73
2022/06/08 03:59:18;;;;;;;8.80;7.28;;;;;;;;;;9509426;30;20129;-73
2022/06/08 04:04:13;;;;;;;14.77;9.43;;;;;;;;;;9515215;30;20059;-73
2022/06/08 04:09:08;;;;;;;10.55;9.23;;;;;;;;;;9496307;30;20067;-73
2022/06/08 04:14:03;;;;;;;9.80;8.50;;;;;;;;;;9504916;30;20419;-73
2022/06/08 04:19:00;;;;;;;9.82;8.05;;;;;;;;;;9518816;30;20098;-73
2022/06/08 04:24:00;;;;;;;15.30;9.50;;;;;;;;;;9495718;30;20569;-73
2022/06/08 04:28:56;;;;;;;12.27;8.27;;;;;;;;;;9520586;30;20064;-73
2022/06/08 04:33:53;;;;;;;9.95;8.27;;;;;;;;;;9513169;30;20101;-73
2022/06/08 04:38:54;;;;;;;12.38;7.55;;;;;;;;;;9507299;30;20471;-72
2022/06/08 04:43:49;;;;;;;6.90;5.78;;;;;;;;;;9492288;30;20546;-74
2022/06/08 04:48:46;;;;;;;6.43;5.13;;;;;;;;;;9482487;30;20512;-73
2022/06/08 04:53:47;;;;;;;7.50;4.30;;;;;;;;;;9495765;30;20060;-73
2022/06/08 04:58:44;;;;;;;5.63;5.05;;;;;;;;;;9481744;30;20055;-73
2022/06/08 05:03:38;;;;;;;8.30;3.97;;;;;;;;;;9508679;30;20101;-73
2022/06/08 05:08:34;;;;;;;6.18;4.13;;;;;;;;;;9492510;30;20052;-74
2022/06/08 05:13:32;;;;;;;10.87;4.67;;;;;;;;;;9508769;30;20104;-73
2022/06/08 05:18:31;;;;;;;10.65;5.25;;;;;;;;;;9494655;30;20135;-73
2022/06/08 05:23:33;;;;;;;7.75;4.90;;;;;;;;;;9492253;30;20056;-73
2022/06/08 05:28:32;;;;;;;8.40;4.97;;;;;;;;;;9491689;30;20052;-73
2022/06/08 05:33:29;;;;;;;9.30;4.20;;;;;;;;;;9496739;30;20119;-73
2022/06/08 05:38:31;;;;;;;10.43;4.95;;;;;;;;;;9505091;30;20060;-73
2022/06/08 05:43:27;;;;;;;7.18;5.18;;;;;;;;;;9520906;30;20053;-74
2022/06/08 05:48:23;;;;;;;8.43;4.72;;;;;;;;;;9518297;30;20071;-75
2022/06/08 05:53:17;;;;;;;11.40;4.82;;;;;;;;;;9497651;30;20515;-73
2022/06/08 05:58:12;;;;;;;8.05;5.25;;;;;;;;;;9507616;30;20056;-75
2022/06/08 06:03:10;;;;;;;7.00;5.80;;;;;;;;;;9503201;30;20060;-74
2022/06/08 06:08:05;;;;;;;13.68;5.07;;;;;;;;;;9517635;30;20492;-74
2022/06/08 06:13:05;;;;;;;8.02;4.40;;;;;;;;;;9490847;30;20417;-75
2022/06/08 06:18:08;;;;;;;11.35;4.85;;;;;;;;;;9489871;30;20056;-72
2022/06/08 06:23:07;;;;;;;6.40;5.35;;;;;;;;;;9505366;30;20060;-73
2022/06/08 06:28:20;;;;;;;6.53;4.25;;;;;;;;;;9489698;30;20064;-77
2022/06/08 06:33:38;;;;;;;4.63;3.85;;;;;;;;;;9496115;30;20220;-76
2022/06/08 06:38:32;;;;;;;9.20;5.30;;;;;;;;;;9496258;30;20100;-76
2022/06/08 06:43:27;;;;;;;7.60;4.10;;;;;;;;;;9501427;30;20052;-76
2022/06/08 06:48:48;;;;;;;7.07;4.10;;;;;;;;;;9483576;30;20079;-79
2022/06/08 06:53:43;;;;;;;7.80;4.68;;;;;;;;;;9506283;30;20059;-79
2022/06/08 06:58:41;;;;;;;7.78;4.50;;;;;;;;;;9495767;30;20516;-78
2022/06/08 07:03:36;;;;;;;12.57;4.97;;;;;;;;;;9504098;30;20390;-73
2022/06/08 07:08:30;;;;;;;8.20;5.60;;;;;;;;;;9501566;30;20416;-73
2022/06/08 07:13:30;;;;;;;9.27;5.25;;;;;;;;;;9505354;30;20092;-79
2022/06/08 07:18:27;;;;;;;9.20;6.20;;;;;;;;;;9488644;30;20060;-75
2022/06/08 07:23:22;;;;;;;10.00;5.72;;;;;;;;;;9487875;30;20128;-74
2022/06/08 07:28:16;;;;;;;9.02;5.95;;;;;;;;;;9508134;30;20535;-75
2022/06/08 07:33:11;;;;;;;12.85;6.40;;;;;;;;;;9521018;30;20584;-74
2022/06/08 07:38:08;;;;;;;11.18;6.70;;;;;;;;;;9513413;30;20063;-76
2022/06/08 07:43:02;;;;;;;17.20;7.57;;;;;;;;;;9508651;30;20056;-74
2022/06/08 07:53:11;;;;;;;13.30;6.80;;;;;;;;;;9508638;30;20135;-72
2022/06/08 07:58:07;;;;;;;13.48;6.63;;;;;;;;;;9509781;30;20052;-75
2022/06/08 08:03:02;;;;;;;11.60;7.18;;;;;;;;;;9510366;30;20125;-73
2022/06/08 08:08:04;;;;;;;11.13;7.20;;;;;;;;;;9520158;30;20067;-72
2022/06/08 08:12:59;;;;;;;14.70;7.13;;;;;;;;;;9511866;30;20131;-75
2022/06/08 08:17:53;;;;;;;13.38;6.28;;;;;;;;;;9507405;30;20063;-76
2022/06/08 08:22:48;;;;;;;8.18;5.30;;;;;;;;;;9509002;30;20225;-76
2022/06/08 08:27:43;;;;;;;9.10;7.20;;;;;;;;;;9509803;30;20056;-75
2022/06/08 08:32:38;;;;;;;7.82;5.57;;;;;;;;;;9510864;30;20056;-76
2022/06/08 08:37:32;;;;;;;13.52;7.10;;;;;;;;;;9508715;30;20520;-77
2022/06/08 08:42:27;;;;;;;12.00;7.13;;;;;;;;;;9513907;30;20139;-77
2022/06/08 08:47:35;;;;;;;10.23;6.22;;;;;;;;;;9514003;30;20412;-76
2022/06/08 08:52:52;;;;;;;9.65;6.00;;;;;;;;;;9520051;30;20131;-76
2022/06/08 08:58:09;;;;;;;12.88;5.93;;;;;;;;;;9507978;30;20075;-75
2022/06/08 09:03:23;;;;;;;9.15;6.65;;;;;;;;;;9502922;30;20056;-77
2022/06/08 09:08:20;;;;;;;9.20;6.80;;;;;;;;;;9478743;30;20139;-76
2022/06/08 09:13:23;;;;;;;19.35;8.60;;;;;;;;;;9508675;30;20060;-75
2022/06/08 09:18:30;;;;;;;14.25;7.40;;;;;;;;;;9502616;30;20142;-76
2022/06/08 09:23:50;;;;;;;11.80;6.57;;;;;;;;;;9508049;30;20052;-76
2022/06/08 09:29:04;;;;;;;14.68;6.82;;;;;;;;;;9495966;30;20074;-73
2022/06/08 09:34:43;;;;;;;15.48;6.60;;;;;;;;;;9496673;30;20060;-73
2022/06/08 09:39:37;;;;;;;13.82;7.57;;;;;;;;;;9448636;30;20060;-73
2022/06/08 09:44:37;;;;;;;15.20;7.72;;;;;;;;;;9472508;30;20060;-73
2022/06/08 09:55:55;;;;;;;8.57;5.80;;;;;;;;;;9457099;30;20061;-70
2022/06/08 10:01:00;;;;;;;13.23;5.85;;;;;;;;;;9465755;30;20088;-71
2022/06/08 10:06:14;;;;;;;8.20;6.28;;;;;;;;;;9465363;30;20068;-70
2022/06/08 10:11:36;;;;;;;8.85;6.45;;;;;;;;;;9465704;30;20421;-69
2022/06/08 10:16:33;;;;;;;11.90;5.53;;;;;;;;;;9464330;30;20048;-70
2022/06/08 10:21:34;;;;;;;;;;;;;;;;;;9462427;30;20410;-71
2022/06/08 10:27:07;;;;;;;5.88;4.05;;;;;;;;;;9467215;30;19930;-71
2022/06/08 10:32:10;;;;;;;7.38;4.10;;;;;;;;;;9420508;30;20071;-69
2022/06/08 10:37:12;;;;;;;6.38;3.45;;;;;;;;;;9471620;30;20429;-68
2022/06/08 10:47:34;;;;;;;5.05;1.60;;;;;;;;;;9500057;30;20081;-70
2022/06/08 10:52:45;;;;;;;5.65;2.80;;;;;;;;;;9477056;30;20127;-74
2022/06/08 10:57:48;;;;;;;7.90;2.83;;;;;;;;;;9488002;30;20085;-75
2022/06/08 11:03:01;;;;;;;6.57;2.95;;;;;;;;;;9496991;30;20113;-74
2022/06/08 11:07:59;;;;;;;5.75;2.97;;;;;;;;;;9504840;30;20109;-77
2022/06/08 11:13:05;;;;;;;3.83;2.40;;;;;;;;;;9509477;30;20064;-68
2022/06/08 11:18:03;;;;;;;6.38;2.72;;;;;;;;;;9499450;30;20056;-75
2022/06/08 11:23:27;;;;;;;3.67;2.70;;;;;;;;;;9509107;30;20060;-75
2022/06/08 11:28:26;;;;;;;3.33;1.70;;;;;;;;;;9502142;30;20475;-73
2022/06/08 11:33:21;;;;;;;3.22;1.77;;;;;;;;;;9504029;30;20056;-76
2022/06/08 11:38:57;;;;;;;3.95;1.77;;;;;;;;;;9504412;30;20052;-73
2022/06/08 11:43:51;;;;;;;3.25;1.88;;;;;;;;;;9489901;30;20086;-68
2022/06/08 11:48:49;;;;;;;1.30;1.20;;;;;;;;;;9503926;30;20092;-79
2022/06/08 11:53:46;;;;;;;2.72;2.03;;;;;;;;;;9506519;30;20110;-76
2022/06/08 11:58:46;;;;;;;2.13;1.65;;;;;;;;;;9504130;30;20512;-76
2022/06/08 12:03:46;;;;;;;4.57;1.60;;;;;;;;;;9502410;30;20080;-76
2022/06/08 12:09:12;;;;;;;4.95;1.60;;;;;;;;;;9473362;30;20075;-76
2022/06/08 12:14:24;;;;;;;1.25;1.13;;;;;;;;;;9498297;30;20139;-69
2022/06/08 12:19:20;;;;;;;2.10;1.45;;;;;;;;;;9503809;30;20079;-75
2022/06/08 12:24:14;;;;;;;1.38;1.02;;;;;;;;;;9502368;30;20152;-76
2022/06/08 12:29:13;;;;;;;1.30;1.02;;;;;;;;;;9503601;30;20572;-76
2022/06/08 12:34:37;;;;;;;3.83;1.23;;;;;;;;;;9502406;30;20052;-75
2022/06/08 12:39:31;;;;;;;1.52;1.42;;;;;;;;;;9504110;30;20080;-76
2022/06/08 12:44:31;;;;;;;3.63;1.35;;;;;;;;;;9505731;30;20091;-78
2022/06/08 12:49:39;;;;;;;3.30;1.20;;;;;;;;;;9504216;30;20048;-78
2022/06/08 12:54:34;;;;;;;6.27;1.40;;;;;;;;;;9503492;30;20102;-77
2022/06/08 12:59:28;;;;;;;4.45;1.60;;;;;;;;;;9495434;30;20408;-81
2022/06/08 13:04:31;;;;;;;1.63;1.20;;;;;;;;;;9501800;30;20581;-77
2022/06/08 13:09:26;;;;;;;3.50;1.25;;;;;;;;;;9498974;30;20078;-79
2022/06/08 13:14:20;;;;;;;2.22;1.70;;;;;;;;;;9505818;30;20139;-75
2022/06/08 13:19:15;;;;;;;3.10;1.60;;;;;;;;;;9492675;30;20416;-76
2022/06/08 13:24:10;;;;;;;2.70;1.50;;;;;;;;;;9508973;30;20056;-79
2022/06/08 13:29:11;;;;;;;1.85;1.10;;;;;;;;;;9508357;30;20058;-78
2022/06/08 13:34:06;;;;;;;1.88;1.23;;;;;;;;;;9504423;30;20453;-75
2022/06/08 13:39:25;;;;;;;2.00;1.80;;;;;;;;;;9504859;30;20087;-76
2022/06/08 13:44:27;;;;;;;2.83;1.25;;;;;;;;;;9504023;30;20076;-77
2022/06/08 13:49:22;;;;;;;2.20;1.50;;;;;;;;;;9504119;30;20067;-76
2022/06/08 13:54:40;;;;;;;2.10;1.85;;;;;;;;;;9505959;30;20063;-81
2022/06/08 13:59:36;;;;;;;1.77;1.40;;;;;;;;;;9503515;30;20059;-80
2022/06/08 14:04:33;;;;;;;9.35;1.42;;;;;;;;;;9507286;30;20063;-81
2022/06/08 14:15:01;;;;;;;2.67;1.10;;;;;;;;;;9505283;30;20062;-73
2022/06/08 14:19:57;;;;;;;1.10;1.00;;;;;;;;;;9503893;30;20052;-75
2022/06/08 14:24:59;;;;;;;5.53;1.25;;;;;;;;;;9503609;30;20163;-78
2022/06/08 14:29:56;;;;;;;2.72;0.98;;;;;;;;;;9500381;30;20048;-75
2022/06/08 14:34:51;;;;;;;4.32;1.00;;;;;;;;;;9502702;30;20193;-78
2022/06/08 14:39:47;;;;;;;1.15;1.00;;;;;;;;;;9500765;30;20133;-80
2022/06/08 14:44:42;;;;;;;1.88;1.00;;;;;;;;;;9503666;30;20064;-77
2022/06/08 14:49:38;;;;;;;1.60;1.13;;;;;;;;;;9504070;30;20479;-80
2022/06/08 14:54:34;;;;;;;3.38;1.30;;;;;;;;;;9505093;30;20463;-77
2022/06/08 14:59:29;;;;;;;4.47;1.10;;;;;;;;;;9504158;30;20056;-80
2022/06/08 15:04:24;;;;;;;1.95;1.50;;;;;;;;;;9502646;30;20068;-83
2022/06/08 15:09:21;;;;;;;2.45;1.45;;;;;;;;;;9506639;30;20082;-80
2022/06/08 15:14:45;;;;;;;3.05;1.90;;;;;;;;;;9507304;30;20060;-80
2022/06/08 15:19:42;;;;;;;2.17;1.30;;;;;;;;;;9507170;30;20060;-76
2022/06/08 15:24:36;;;;;;;1.38;1.27;;;;;;;;;;9505589;30;20111;-82
2022/06/08 15:29:32;;;;;;;2.42;1.20;;;;;;;;;;9506014;30;20141;-79
2022/06/08 15:34:29;;;;;;;6.13;1.80;;;;;;;;;;9503541;30;20056;-86
2022/06/08 15:39:51;;;;;;;3.58;1.40;;;;;;;;;;9503234;30;20056;-86
2022/06/08 15:44:45;;;;;;;1.95;1.33;;;;;;;;;;9502313;30;20086;-74
2022/06/08 15:49:40;;;;;;;1.65;1.10;;;;;;;;;;9517701;30;20059;-74
2022/06/08 15:54:41;;;;;;;5.05;1.60;;;;;;;;;;9520645;30;20067;-76
2022/06/08 15:59:47;;;;;;;7.53;1.40;;;;;;;;;;9524469;30;20052;-76
2022/06/08 16:04:42;;;;;;;2.95;1.50;;;;;;;;;;9514559;30;20082;-76
2022/06/08 16:09:39;;;;;;;5.10;1.27;;;;;;;;;;9533716;30;20420;-77
2022/06/08 16:14:34;;;;;;;4.38;1.30;;;;;;;;;;9519909;30;20056;-73
2022/06/08 16:19:29;;;;;;;4.18;1.23;;;;;;;;;;9517640;30;20060;-75
2022/06/08 16:24:25;;;;;;;6.10;1.42;;;;;;;;;;9526527;30;20063;-78
2022/06/08 16:29:22;;;;;;;2.83;1.67;;;;;;;;;;9525364;30;20060;-78
2022/06/08 16:34:20;;;;;;;3.13;1.35;;;;;;;;;;9530699;30;20074;-78
2022/06/08 16:39:15;;;;;;;3.00;1.67;;;;;;;;;;9525710;30;20090;-78
2022/06/08 16:44:11;;;;;;;2.45;1.25;;;;;;;;;;9529903;30;20156;-77
2022/06/08 16:49:06;;;;;;;3.30;1.48;;;;;;;;;;9529488;30;20052;-78
2022/06/08 16:54:00;;;;;;;2.03;1.00;;;;;;;;;;9521951;30;20057;-78
2022/06/08 17:04:08;;;;;;;2.72;1.30;;;;;;;;;;9530116;30;20048;-76
2022/06/08 17:09:04;;;;;;;6.63;2.65;;;;;;;;;;9526538;30;20064;-76
2022/06/08 17:13:59;;;;;;;3.45;1.50;;;;;;;;;;9519641;30;20078;-75
2022/06/08 17:18:54;;;;;;;2.83;1.13;;;;;;;;;;9521507;30;20201;-76
2022/06/08 17:23:48;;;;;;;5.20;1.42;;;;;;;;;;9514446;30;20131;-71
2022/06/08 17:28:45;;;;;;;4.00;2.10;;;;;;;;;;9508833;30;20056;-72
2022/06/08 17:33:40;;;;;;;5.53;3.22;;;;;;;;;;9506396;30;20059;-71
2022/06/08 17:38:35;;;;;;;4.60;2.35;;;;;;;;;;9508607;30;20060;-74
2022/06/08 17:43:29;;;;;;;2.40;1.13;;;;;;;;;;9507256;30;20472;-74
2022/06/08 17:48:23;;;;;;;4.75;0.88;;;;;;;;;;9505422;30;20063;-74
2022/06/08 17:53:19;;;;;;;4.30;0.88;;;;;;;;;;9505879;30;20063;-74
2022/06/08 17:58:14;;;;;;;1.67;1.08;;;;;;;;;;9506882;30;20060;-74
2022/06/08 18:03:08;;;;;;;4.43;1.25;;;;;;;;;;9506880;30;20134;-74
2022/06/08 18:08:04;;;;;;;5.35;1.17;;;;;;;;;;9506053;30;20064;-74
2022/06/08 18:12:58;;;;;;;2.97;1.10;;;;;;;;;;9506584;30;20094;-74
2022/06/08 18:17:53;;;;;;;5.20;1.00;;;;;;;;;;9506695;30;20113;-73
2022/06/08 18:22:50;;;;;;;4.95;1.20;;;;;;;;;;9509417;30;20074;-73
2022/06/08 18:27:47;;;;;;;4.78;0.90;;;;;;;;;;9508636;30;20535;-77
2022/06/08 18:32:43;;;;;;;4.47;0.90;;;;;;;;;;9525186;30;20439;-77
2022/06/08 18:37:37;;;;;;;2.95;1.30;;;;;;;;;;9509783;30;20056;-73
2022/06/08 18:42:31;;;;;;;6.57;1.90;;;;;;;;;;9503492;30;20052;-74
2022/06/08 18:47:27;;;;;;;7.43;3.63;;;;;;;;;;9494796;30;20052;-73
2022/06/08 18:52:22;;;;;;;4.75;2.80;;;;;;;;;;9507275;30;20072;-73
2022/06/08 18:57:17;;;;;;;4.78;2.40;;;;;;;;;;9505332;30;20056;-74
2022/06/08 19:02:13;;;;;;;4.80;1.92;;;;;;;;;;9505306;30;20095;-73
2022/06/08 19:07:08;;;;;;;6.60;1.70;;;;;;;;;;9504419;30;20394;-80
2022/06/08 19:12:08;;;;;;;3.42;1.40;;;;;;;;;;9504558;30;20063;-70
2022/06/08 19:17:05;;;;;;;3.03;1.25;;;;;;;;;;9503665;30;20133;-69
2022/06/08 19:22:01;;;;;;;2.95;0.80;;;;;;;;;;9505998;30;20105;-68
2022/06/08 19:26:56;;;;;;;2.33;0.93;;;;;;;;;;9512957;30;20052;-76
2022/06/08 19:31:52;;;;;;;2.35;1.00;;;;;;;;;;9511416;30;20524;-73
2022/06/08 19:36:49;;;;;;;2.17;0.90;;;;;;;;;;9509397;30;20171;-71
2022/06/08 19:41:48;;;;;;;1.92;0.80;;;;;;;;;;9512936;30;20059;-68
2022/06/08 19:46:42;;;;;;;;;;;;;;;;;;9514033;30;20067;-69
2022/06/08 19:51:37;;;;;;;1.42;0.90;;;;;;;;;;9512411;30;19968;-70
2022/06/08 19:56:33;;;;;;;7.43;0.70;;;;;;;;;;9512424;30;20056;-68
2022/06/08 20:01:30;;;;;;;1.55;0.80;;;;;;;;;;9513257;30;20104;-71
2022/06/08 20:06:24;;;;;;;2.38;1.30;;;;;;;;;;9513183;30;20060;-75
2022/06/08 20:11:21;;;;;;;3.35;0.80;;;;;;;;;;9507703;30;20060;-72
2022/06/08 20:16:17;;;;;;;1.35;1.17;;;;;;;;;;9510405;30;20080;-73
2022/06/08 20:21:15;;;;;;;7.63;2.25;;;;;;;;;;9509632;30;20060;-70
2022/06/08 20:26:10;;;;;;;6.68;0.80;;;;;;;;;;9511807;30;20139;-68
2022/06/08 20:31:06;;;;;;;4.25;0.90;;;;;;;;;;9513303;30;20116;-65
2022/06/08 20:36:01;;;;;;;1.45;1.00;;;;;;;;;;9510119;30;20052;-68
2022/06/08 20:40:56;;;;;;;3.10;0.90;;;;;;;;;;9506253;30;20052;-67
2022/06/08 20:45:51;;;;;;;4.15;1.45;;;;;;;;;;9506523;30;20129;-67
2022/06/08 20:50:48;;;;;;;2.25;0.98;;;;;;;;;;9505924;30;20048;-67
2022/06/08 20:55:42;;;;;;;6.60;1.02;;;;;;;;;;9507120;30;20534;-66
2022/06/08 21:00:35;;;;;;;2.75;0.82;;;;;;;;;;9508172;30;20136;-67
2022/06/08 21:05:34;;;;;;;5.68;1.02;;;;;;;;;;9508510;30;20077;-67
2022/06/08 21:10:29;;;;;;;4.50;0.88;;;;;;;;;;9507682;30;20497;-65
2022/06/08 21:15:25;;;;;;;1.30;0.98;;;;;;;;;;9511660;30;20060;-65
2022/06/08 21:20:20;;;;;;;3.00;1.05;;;;;;;;;;9508185;30;20052;-66
2022/06/08 21:25:17;;;;;;;3.17;0.90;;;;;;;;;;9511338;30;20056;-66
2022/06/08 21:30:12;;;;;;;2.47;0.77;;;;;;;;;;9511982;30;20157;-67
2022/06/08 21:35:08;;;;;;;4.70;1.00;;;;;;;;;;9503274;30;20512;-66
2022/06/08 21:40:05;;;;;;;2.78;1.65;;;;;;;;;;9502722;30;20068;-67
2022/06/08 21:45:00;;;;;;;4.80;1.45;;;;;;;;;;9503481;30;20093;-67
2022/06/08 21:49:55;;;;;;;4.18;1.75;;;;;;;;;;9510058;30;20064;-66
2022/06/08 21:55:30;;;;;;;2.85;1.80;;;;;;;;;;9509373;30;20056;-67
2022/06/08 22:00:45;;;;;;;10.35;1.58;;;;;;;;;;9512309;30;20110;-66
2022/06/08 22:05:44;;;;;;;4.78;2.13;;;;;;;;;;9502720;30;20052;-64
2022/06/08 22:10:41;;;;;;;4.00;1.65;;;;;;;;;;9504809;30;20086;-65
2022/06/08 22:15:37;;;;;;;8.45;3.85;;;;;;;;;;9502557;30;20064;-66
2022/06/08 22:20:31;;;;;;;4.10;2.85;;;;;;;;;;9505223;30;20044;-66
2022/06/08 22:25:28;;;;;;;3.30;2.78;;;;;;;;;;9506442;30;20382;-65
2022/06/08 22:30:23;;;;;;;5.68;2.30;;;;;;;;;;9506387;30;20501;-66
2022/06/08 22:35:21;;;;;;;2.38;1.98;;;;;;;;;;9510512;30;20059;-65
2022/06/08 22:40:17;;;;;;;4.78;2.50;;;;;;;;;;9502682;30;20069;-66
2022/06/08 22:45:14;;;;;;;7.35;2.08;;;;;;;;;;9503154;30;20060;-64
2022/06/08 22:50:12;;;;;;;3.08;2.15;;;;;;;;;;9510104;30;20068;-64
2022/06/08 22:55:09;;;;;;;5.00;2.30;;;;;;;;;;9518931;30;20481;-64
2022/06/08 23:00:08;;;;;;;4.60;1.95;;;;;;;;;;9501403;30;20109;-64
2022/06/08 23:05:07;;;;;;;5.13;2.63;;;;;;;;;;9513444;30;20504;-64
2022/06/08 23:10:07;;;;;;;3.83;3.42;;;;;;;;;;9505198;30;20052;-64
2022/06/08 23:15:04;;;;;;;4.57;3.13;;;;;;;;;;9502007;30;20125;-64
2022/06/08 23:25:11;;;;;;;6.35;3.03;;;;;;;;;;9502643;30;20056;-66
2022/06/08 23:30:07;;;;;;;8.65;4.05;;;;;;;;;;9501090;30;20052;-65
2022/06/08 23:35:03;;;;;;;5.97;4.00;;;;;;;;;;9504679;30;20068;-65
2022/06/08 23:39:59;;;;;;;4.10;3.53;;;;;;;;;;9505370;30;20064;-65
2022/06/08 23:44:53;;;;;;;7.88;3.63;;;;;;;;;;9505049;30;20060;-66
2022/06/08 23:49:47;;;;;;;3.97;3.58;;;;;;;;;;9504476;30;20060;-65
2022/06/08 23:54:43;;;;;;;6.97;3.33;;;;;;;;;;9504799;30;20087;-65
2022/06/08 23:59:37;;;;;;;10.60;3.35;;;;;;;;;;9504602;30;20159;-66
